sensor_id;sensor_type;location;lat;lon;timestamp;pressure;altitude;pressure_sealevel;temperature;humidity
26775;BME280;14362;51.902;7.626;2022-10-29T00:00:24;101555.50;;;16.17;100.00
26775;BME280;14362;51.902;7.626;2022-10-29T00:04:25;101556.16;;;16.14;100.00
26775;BME280;14362;51.902;7.626;2022-10-29T00:08:28;101548.91;;;16.13;100.00
26775;BME280;14362;51.902;7.626;2022-10-29T00:12:31;101541.97;;;16.11;100.00
26775;BME280;14362;51.902;7.626;2022-10-29T00:16:34;101538.69;;;16.09;100.00
26775;BME280;14362;51.902;7.626;2022-10-29T00:20:36;101543.47;;;16.08;100.00
26775;BME280;14362;51.902;7.626;2022-10-29T00:24:37;101535.03;;;16.08;100.00
26775;BME280;14362;51.902;7.626;2022-10-29T00:28:41;101534.06;;;16.04;100.00
26775;BME280;14362;51.902;7.626;2022-10-29T00:32:43;101528.66;;;15.99;100.00
26775;BME280;14362;51.902;7.626;2022-10-29T00:36:44;101528.84;;;15.94;100.00
26775;BME280;14362;51.902;7.626;2022-10-29T00:40:45;101536.31;;;15.90;100.00
26775;BME280;14362;51.902;7.626;2022-10-29T00:44:48;101544.47;;;15.83;100.00
26775;BME280;14362;51.902;7.626;2022-10-29T00:48:51;101555.22;;;15.81;100.00
26775;BME280;14362;51.902;7.626;2022-10-29T00:52:55;101560.38;;;15.79;100.00
26775;BME280;14362;51.902;7.626;2022-10-29T00:56:59;101550.16;;;15.75;100.00
26775;BME280;14362;51.902;7.626;2022-10-29T01:01:05;101545.69;;;15.74;100.00
26775;BME280;14362;51.902;7.626;2022-10-29T01:05:08;101546.69;;;15.69;100.00
26775;BME280;14362;51.902;7.626;2022-10-29T01:09:10;101554.50;;;15.64;100.00
26775;BME280;14362;51.902;7.626;2022-10-29T01:13:18;101555.50;;;15.59;100.00
26775;BME280;14362;51.902;7.626;2022-10-29T01:17:29;101555.50;;;15.59;100.00
26775;BME280;14362;51.902;7.626;2022-10-29T01:21:39;101544.25;;;15.59;100.00
26775;BME280;14362;51.902;7.626;2022-10-29T01:26:06;101528.44;;;15.55;100.00
26775;BME280;14362;51.902;7.626;2022-10-29T01:30:19;101528.25;;;15.51;100.00
26775;BME280;14362;51.902;7.626;2022-10-29T01:34:27;101528.78;;;15.45;100.00
26775;BME280;14362;51.902;7.626;2022-10-29T01:38:35;101536.06;;;15.46;100.00
26775;BME280;14362;51.902;7.626;2022-10-29T01:42:41;101525.34;;;15.39;100.00
26775;BME280;14362;51.902;7.626;2022-10-29T01:46:47;101522.59;;;15.23;100.00
26775;BME280;14362;51.902;7.626;2022-10-29T01:50:54;101518.00;;;15.18;100.00
26775;BME280;14362;51.902;7.626;2022-10-29T01:54:58;101515.34;;;15.13;100.00
26775;BME280;14362;51.902;7.626;2022-10-29T01:59:02;101498.00;;;15.11;100.00
26775;BME280;14362;51.902;7.626;2022-10-29T02:03:17;101498.38;;;15.10;100.00
26775;BME280;14362;51.902;7.626;2022-10-29T02:07:34;101493.38;;;15.15;100.00
26775;BME280;14362;51.902;7.626;2022-10-29T02:11:44;101495.22;;;15.11;100.00
26775;BME280;14362;51.902;7.626;2022-10-29T02:15:49;101489.59;;;15.11;100.00
26775;BME280;14362;51.902;7.626;2022-10-29T02:19:52;101495.22;;;15.11;100.00
26775;BME280;14362;51.902;7.626;2022-10-29T02:23:55;101485.94;;;15.11;100.00
26775;BME280;14362;51.902;7.626;2022-10-29T02:27:56;101487.94;;;15.10;100.00
26775;BME280;14362;51.902;7.626;2022-10-29T02:31:58;101485.31;;;15.05;100.00
26775;BME280;14362;51.902;7.626;2022-10-29T02:35:59;101489.13;;;15.01;100.00
26775;BME280;14362;51.902;7.626;2022-10-29T02:40:02;101486.50;;;14.96;100.00
26775;BME280;14362;51.902;7.626;2022-10-29T02:44:04;101479.09;;;14.91;100.00
26775;BME280;14362;51.902;7.626;2022-10-29T02:48:05;101468.66;;;14.92;100.00
26775;BME280;14362;51.902;7.626;2022-10-29T02:52:07;101466.72;;;14.92;100.00
26775;BME280;14362;51.902;7.626;2022-10-29T02:56:10;101463.91;;;14.92;100.00
26775;BME280;14362;51.902;7.626;2022-10-29T03:00:12;101460.25;;;14.92;100.00
26775;BME280;14362;51.902;7.626;2022-10-29T03:04:14;101459.94;;;14.93;100.00
26775;BME280;14362;51.902;7.626;2022-10-29T03:08:15;101449.03;;;14.92;100.00
26775;BME280;14362;51.902;7.626;2022-10-29T03:12:18;101456.13;;;14.89;100.00
26775;BME280;14362;51.902;7.626;2022-10-29T03:16:20;101462.59;;;14.90;100.00
26775;BME280;14362;51.902;7.626;2022-10-29T03:20:21;101457.78;;;14.90;100.00
26775;BME280;14362;51.902;7.626;2022-10-29T03:24:23;101449.22;;;14.87;100.00
26775;BME280;14362;51.902;7.626;2022-10-29T03:28:26;101445.94;;;14.85;100.00
26775;BME280;14362;51.902;7.626;2022-10-29T03:32:29;101451.06;;;14.83;100.00
26775;BME280;14362;51.902;7.626;2022-10-29T03:36:30;101445.28;;;14.79;100.00
26775;BME280;14362;51.902;7.626;2022-10-29T03:40:32;101445.59;;;14.78;100.00
26775;BME280;14362;51.902;7.626;2022-10-29T03:44:34;101450.25;;;14.74;100.00
26775;BME280;14362;51.902;7.626;2022-10-29T03:48:36;101441.34;;;14.72;100.00
26775;BME280;14362;51.902;7.626;2022-10-29T03:52:37;101437.56;;;14.68;100.00
26775;BME280;14362;51.902;7.626;2022-10-29T03:56:39;101429.81;;;14.65;100.00
26775;BME280;14362;51.902;7.626;2022-10-29T04:00:41;101438.91;;;14.62;100.00
26775;BME280;14362;51.902;7.626;2022-10-29T04:04:43;101431.63;;;14.61;100.00
26775;BME280;14362;51.902;7.626;2022-10-29T04:08:44;101435.59;;;14.60;100.00
26775;BME280;14362;51.902;7.626;2022-10-29T04:12:45;101428.34;;;14.59;100.00
26775;BME280;14362;51.902;7.626;2022-10-29T04:16:48;101434.28;;;14.57;100.00
26775;BME280;14362;51.902;7.626;2022-10-29T04:20:50;101439.28;;;14.52;100.00
26775;BME280;14362;51.902;7.626;2022-10-29T04:24:52;101447.69;;;14.52;100.00
26775;BME280;14362;51.902;7.626;2022-10-29T04:28:54;101457.06;;;14.47;100.00
26775;BME280;14362;51.902;7.626;2022-10-29T04:32:57;101451.31;;;14.44;100.00
26775;BME280;14362;51.902;7.626;2022-10-29T04:36:58;101451.66;;;14.42;100.00
26775;BME280;14362;51.902;7.626;2022-10-29T04:41:00;101461.53;;;14.40;100.00
26775;BME280;14362;51.902;7.626;2022-10-29T04:45:02;101458.91;;;14.35;100.00
26775;BME280;14362;51.902;7.626;2022-10-29T04:49:05;101460.91;;;14.34;100.00
26775;BME280;14362;51.902;7.626;2022-10-29T04:53:07;101466.50;;;14.34;100.00
26775;BME280;14362;51.902;7.626;2022-10-29T04:57:09;101455.28;;;14.34;100.00
26775;BME280;14362;51.902;7.626;2022-10-29T05:01:10;101453.78;;;14.37;100.00
26775;BME280;14362;51.902;7.626;2022-10-29T05:05:13;101437.97;;;14.32;100.00
26775;BME280;14362;51.902;7.626;2022-10-29T05:09:14;101416.16;;;14.38;100.00
26775;BME280;14362;51.902;7.626;2022-10-29T05:13:16;101418.81;;;14.34;100.00
26775;BME280;14362;51.902;7.626;2022-10-29T05:17:17;101420.34;;;14.32;100.00
26775;BME280;14362;51.902;7.626;2022-10-29T05:21:20;101417.53;;;14.32;100.00
26775;BME280;14362;51.902;7.626;2022-10-29T05:25:21;101414.22;;;14.30;100.00
26775;BME280;14362;51.902;7.626;2022-10-29T05:29:22;101398.88;;;14.28;100.00
26775;BME280;14362;51.902;7.626;2022-10-29T05:33:24;101399.06;;;14.23;100.00
26775;BME280;14362;51.902;7.626;2022-10-29T05:37:26;101411.25;;;14.18;100.00
26775;BME280;14362;51.902;7.626;2022-10-29T05:41:28;101413.91;;;14.15;100.00
26775;BME280;14362;51.902;7.626;2022-10-29T05:45:29;101405.13;;;14.08;100.00
26775;BME280;14362;51.902;7.626;2022-10-29T05:49:31;101395.06;;;14.07;100.00
26775;BME280;14362;51.902;7.626;2022-10-29T05:53:33;101403.34;;;14.03;100.00
26775;BME280;14362;51.902;7.626;2022-10-29T05:57:35;101403.81;;;14.05;100.00
26775;BME280;14362;51.902;7.626;2022-10-29T06:01:36;101406.28;;;13.98;100.00
26775;BME280;14362;51.902;7.626;2022-10-29T06:05:38;101386.38;;;14.00;100.00
26775;BME280;14362;51.902;7.626;2022-10-29T06:09:40;101389.16;;;14.00;100.00
26775;BME280;14362;51.902;7.626;2022-10-29T06:13:42;101390.16;;;14.04;100.00
26775;BME280;14362;51.902;7.626;2022-10-29T06:17:44;101391.47;;;14.06;100.00
26775;BME280;14362;51.902;7.626;2022-10-29T06:21:46;101399.53;;;14.08;100.00
26775;BME280;14362;51.902;7.626;2022-10-29T06:25:48;101400.88;;;14.10;100.00
26775;BME280;14362;51.902;7.626;2022-10-29T06:29:50;101406.47;;;14.10;100.00
26775;BME280;14362;51.902;7.626;2022-10-29T06:33:53;101399.22;;;14.09;100.00
26775;BME280;14362;51.902;7.626;2022-10-29T06:37:55;101412.38;;;14.09;100.00
26775;BME280;14362;51.902;7.626;2022-10-29T06:41:57;101410.44;;;14.09;100.00
26775;BME280;14362;51.902;7.626;2022-10-29T06:45:59;101404.16;;;14.12;100.00
26775;BME280;14362;51.902;7.626;2022-10-29T06:50:00;101408.31;;;14.15;100.00
26775;BME280;14362;51.902;7.626;2022-10-29T06:54:02;101413.56;;;14.16;100.00
26775;BME280;14362;51.902;7.626;2022-10-29T06:58:06;101407.97;;;14.16;100.00
26775;BME280;14362;51.902;7.626;2022-10-29T07:02:09;101409.94;;;14.16;100.00
26775;BME280;14362;51.902;7.626;2022-10-29T07:06:12;101405.84;;;14.13;100.00
26775;BME280;14362;51.902;7.626;2022-10-29T07:10:14;101409.94;;;14.16;100.00
26775;BME280;14362;51.902;7.626;2022-10-29T07:14:16;101411.94;;;14.24;100.00
26775;BME280;14362;51.902;7.626;2022-10-29T07:18:18;101410.41;;;14.34;100.00
26775;BME280;14362;51.902;7.626;2022-10-29T07:22:19;101407.41;;;14.48;100.00
26775;BME280;14362;51.902;7.626;2022-10-29T07:26:21;101397.47;;;14.59;100.00
26775;BME280;14362;51.902;7.626;2022-10-29T07:30:23;101401.09;;;14.68;100.00
26775;BME280;14362;51.902;7.626;2022-10-29T07:34:25;101409.13;;;14.78;100.00
26775;BME280;14362;51.902;7.626;2022-10-29T07:38:26;101413.06;;;14.85;100.00
26775;BME280;14362;51.902;7.626;2022-10-29T07:42:27;101407.75;;;14.92;100.00
26775;BME280;14362;51.902;7.626;2022-10-29T07:46:30;101394.03;;;14.99;100.00
26775;BME280;14362;51.902;7.626;2022-10-29T07:50:32;101417.75;;;15.10;100.00
26775;BME280;14362;51.902;7.626;2022-10-29T07:54:33;101412.91;;;15.19;100.00
26775;BME280;14362;51.902;7.626;2022-10-29T07:58:35;101416.50;;;15.28;100.00
26775;BME280;14362;51.902;7.626;2022-10-29T08:02:37;101420.56;;;15.39;100.00
26775;BME280;14362;51.902;7.626;2022-10-29T08:06:39;101427.31;;;15.46;100.00
26775;BME280;14362;51.902;7.626;2022-10-29T08:10:40;101424.91;;;15.57;100.00
26775;BME280;14362;51.902;7.626;2022-10-29T08:14:42;101421.84;;;15.70;100.00
26775;BME280;14362;51.902;7.626;2022-10-29T08:18:45;101430.44;;;15.74;100.00
26775;BME280;14362;51.902;7.626;2022-10-29T08:22:47;101428.72;;;15.81;100.00
26775;BME280;14362;51.902;7.626;2022-10-29T08:26:49;101436.72;;;15.91;100.00
26775;BME280;14362;51.902;7.626;2022-10-29T08:30:50;101445.72;;;16.05;100.00
26775;BME280;14362;51.902;7.626;2022-10-29T08:34:53;101429.59;;;16.14;100.00
26775;BME280;14362;51.902;7.626;2022-10-29T08:38:55;101428.34;;;16.24;100.00
26775;BME280;14362;51.902;7.626;2022-10-29T08:43:25;101434.41;;;16.34;100.00
26775;BME280;14362;51.902;7.626;2022-10-29T08:47:33;101431.13;;;16.44;100.00
26775;BME280;14362;51.902;7.626;2022-10-29T08:51:49;101418.28;;;16.55;100.00
26775;BME280;14362;51.902;7.626;2022-10-29T08:55:52;101417.41;;;16.75;100.00
26775;BME280;14362;51.902;7.626;2022-10-29T09:00:02;101423.53;;;16.89;100.00
26775;BME280;14362;51.902;7.626;2022-10-29T09:04:20;101418.50;;;17.06;100.00
26775;BME280;14362;51.902;7.626;2022-10-29T09:08:30;101406.63;;;17.25;100.00
26775;BME280;14362;51.902;7.626;2022-10-29T09:12:46;101408.28;;;17.38;100.00
26775;BME280;14362;51.902;7.626;2022-10-29T09:16:55;101401.72;;;17.46;100.00
26775;BME280;14362;51.902;7.626;2022-10-29T09:21:06;101394.31;;;17.53;100.00
26775;BME280;14362;51.902;7.626;2022-10-29T09:25:14;101393.72;;;17.59;100.00
26775;BME280;14362;51.902;7.626;2022-10-29T09:29:45;101382.75;;;17.70;100.00
26775;BME280;14362;51.902;7.626;2022-10-29T09:33:49;101369.69;;;17.77;100.00
26775;BME280;14362;51.902;7.626;2022-10-29T09:37:52;101361.31;;;17.93;100.00
26775;BME280;14362;51.902;7.626;2022-10-29T09:41:57;101368.91;;;18.04;100.00
26775;BME280;14362;51.902;7.626;2022-10-29T09:46:07;101360.19;;;18.09;100.00
26775;BME280;14362;51.902;7.626;2022-10-29T09:50:15;101361.56;;;18.15;100.00
26775;BME280;14362;51.902;7.626;2022-10-29T09:54:20;101347.53;;;18.31;100.00
26775;BME280;14362;51.902;7.626;2022-10-29T09:58:25;101351.63;;;18.33;100.00
26775;BME280;14362;51.902;7.626;2022-10-29T10:02:32;101349.47;;;18.42;100.00
26775;BME280;14362;51.902;7.626;2022-10-29T10:07:01;101362.31;;;18.55;100.00
26775;BME280;14362;51.902;7.626;2022-10-29T10:11:04;101354.66;;;18.71;100.00
26775;BME280;14362;51.902;7.626;2022-10-29T10:15:17;101356.03;;;18.77;100.00
26775;BME280;14362;51.902;7.626;2022-10-29T10:19:21;101362.88;;;18.91;100.00
26775;BME280;14362;51.902;7.626;2022-10-29T10:23:25;101355.03;;;19.00;100.00
26775;BME280;14362;51.902;7.626;2022-10-29T10:27:29;101341.09;;;19.23;100.00
26775;BME280;14362;51.902;7.626;2022-10-29T10:31:32;101329.00;;;19.41;100.00
26775;BME280;14362;51.902;7.626;2022-10-29T10:35:34;101327.31;;;19.56;100.00
26775;BME280;14362;51.902;7.626;2022-10-29T10:39:37;101332.16;;;19.55;100.00
26775;BME280;14362;51.902;7.626;2022-10-29T10:43:41;101337.97;;;19.62;100.00
26775;BME280;14362;51.902;7.626;2022-10-29T10:47:47;101329.88;;;19.60;100.00
26775;BME280;14362;51.902;7.626;2022-10-29T10:51:51;101315.13;;;19.70;100.00
26775;BME280;14362;51.902;7.626;2022-10-29T10:55:55;101321.97;;;19.88;100.00
26775;BME280;14362;51.902;7.626;2022-10-29T11:00:02;101308.69;;;20.08;100.00
26775;BME280;14362;51.902;7.626;2022-10-29T11:04:13;101307.38;;;20.24;100.00
26775;BME280;14362;51.902;7.626;2022-10-29T11:08:20;101290.97;;;20.33;100.00
26775;BME280;14362;51.902;7.626;2022-10-29T11:12:29;101287.06;;;20.41;100.00
26775;BME280;14362;51.902;7.626;2022-10-29T11:16:37;101287.44;;;20.40;100.00
26775;BME280;14362;51.902;7.626;2022-10-29T11:20:43;101288.59;;;20.58;100.00
26775;BME280;14362;51.902;7.626;2022-10-29T11:24:52;101300.09;;;20.68;100.00
26775;BME280;14362;51.902;7.626;2022-10-29T11:29:01;101293.06;;;20.81;100.00
26775;BME280;14362;51.902;7.626;2022-10-29T11:33:10;101304.56;;;20.91;100.00
26775;BME280;14362;51.902;7.626;2022-10-29T11:37:20;101282.91;;;21.02;100.00
26775;BME280;14362;51.902;7.626;2022-10-29T11:41:29;101278.97;;;21.10;100.00
26775;BME280;14362;51.902;7.626;2022-10-29T11:45:39;101273.00;;;21.19;99.68
26775;BME280;14362;51.902;7.626;2022-10-29T11:50:00;101269.84;;;21.24;97.25
26775;BME280;14362;51.902;7.626;2022-10-29T11:54:12;101264.72;;;21.33;95.61
26775;BME280;14362;51.902;7.626;2022-10-29T11:58:16;101264.06;;;21.43;94.78
26775;BME280;14362;51.902;7.626;2022-10-29T12:02:28;101274.94;;;21.67;93.52
26775;BME280;14362;51.902;7.626;2022-10-29T12:06:38;101268.72;;;21.87;92.54
26775;BME280;14362;51.902;7.626;2022-10-29T12:10:48;101265.84;;;21.83;92.23
26775;BME280;14362;51.902;7.626;2022-10-29T12:14:55;101271.66;;;21.94;92.23
26775;BME280;14362;51.902;7.626;2022-10-29T12:19:06;101269.72;;;22.05;91.20
26775;BME280;14362;51.902;7.626;2022-10-29T12:23:17;101260.47;;;22.11;89.82
26775;BME280;14362;51.902;7.626;2022-10-29T12:27:29;101245.16;;;22.19;89.67
26775;BME280;14362;51.902;7.626;2022-10-29T12:31:42;101234.22;;;22.21;88.53
26775;BME280;14362;51.902;7.626;2022-10-29T12:35:50;101238.81;;;22.33;88.54
26775;BME280;14362;51.902;7.626;2022-10-29T12:40:00;101241.72;;;22.40;86.86
26775;BME280;14362;51.902;7.626;2022-10-29T12:44:08;101234.91;;;22.48;87.74
26775;BME280;14362;51.902;7.626;2022-10-29T12:48:17;101223.66;;;22.58;86.98
26775;BME280;14362;51.902;7.626;2022-10-29T12:52:27;101230.38;;;22.90;85.30
26775;BME280;14362;51.902;7.626;2022-10-29T12:56:32;101220.88;;;23.19;83.27
26775;BME280;14362;51.902;7.626;2022-10-29T13:00:45;101223.34;;;23.27;82.03
26775;BME280;14362;51.902;7.626;2022-10-29T13:05:13;101219.69;;;23.27;81.81
26775;BME280;14362;51.902;7.626;2022-10-29T13:09:18;101215.31;;;23.40;81.08
26775;BME280;14362;51.902;7.626;2022-10-29T13:13:29;101201.03;;;23.33;78.34
26775;BME280;14362;51.902;7.626;2022-10-29T13:17:36;101201.03;;;23.29;80.32
26775;BME280;14362;51.902;7.626;2022-10-29T13:21:56;101190.44;;;23.30;80.85
26775;BME280;14362;51.902;7.626;2022-10-29T13:25:58;101206.28;;;23.31;80.48
26775;BME280;14362;51.902;7.626;2022-10-29T13:30:16;101194.50;;;23.25;79.96
26775;BME280;14362;51.902;7.626;2022-10-29T13:34:52;101186.75;;;23.22;80.24
26775;BME280;14362;51.902;7.626;2022-10-29T13:39:00;101180.22;;;23.15;79.98
26775;BME280;14362;51.902;7.626;2022-10-29T13:43:09;101172.88;;;23.14;80.21
26775;BME280;14362;51.902;7.626;2022-10-29T13:47:19;101159.50;;;23.21;80.31
26775;BME280;14362;51.902;7.626;2022-10-29T13:51:29;101168.94;;;23.39;80.51
26775;BME280;14362;51.902;7.626;2022-10-29T13:55:35;101164.06;;;23.36;79.18
26775;BME280;14362;51.902;7.626;2022-10-29T13:59:40;101158.78;;;23.42;77.49
26775;BME280;14362;51.902;7.626;2022-10-29T14:03:53;101163.63;;;23.31;77.24
26775;BME280;14362;51.902;7.626;2022-10-29T14:08:00;101151.00;;;23.25;78.65
26775;BME280;14362;51.902;7.626;2022-10-29T14:12:05;101154.59;;;23.11;79.63
26775;BME280;14362;51.902;7.626;2022-10-29T14:16:09;101162.63;;;23.02;81.09
26775;BME280;14362;51.902;7.626;2022-10-29T14:20:23;101155.25;;;22.94;80.26
26775;BME280;14362;51.902;7.626;2022-10-29T14:24:35;101153.25;;;22.98;80.38
26775;BME280;14362;51.902;7.626;2022-10-29T14:28:37;101155.25;;;22.87;80.05
26775;BME280;14362;51.902;7.626;2022-10-29T14:32:39;101160.09;;;22.83;81.58
26775;BME280;14362;51.902;7.626;2022-10-29T14:36:43;101153.47;;;22.69;83.50
26775;BME280;14362;51.902;7.626;2022-10-29T14:40:47;101153.75;;;22.50;84.81
26775;BME280;14362;51.902;7.626;2022-10-29T14:44:50;101155.28;;;22.37;84.60
26775;BME280;14362;51.902;7.626;2022-10-29T14:48:58;101147.03;;;22.25;85.29
26775;BME280;14362;51.902;7.626;2022-10-29T14:53:02;101150.22;;;22.20;86.23
26775;BME280;14362;51.902;7.626;2022-10-29T14:57:10;101153.41;;;22.15;86.71
26775;BME280;14362;51.902;7.626;2022-10-29T15:01:15;101158.31;;;22.18;86.39
26775;BME280;14362;51.902;7.626;2022-10-29T15:05:23;101152.66;;;22.18;86.83
26775;BME280;14362;51.902;7.626;2022-10-29T15:09:26;101157.44;;;22.07;86.37
26775;BME280;14362;51.902;7.626;2022-10-29T15:13:32;101150.47;;;22.05;87.14
26775;BME280;14362;51.902;7.626;2022-10-29T15:17:35;101144.78;;;22.01;87.02
26775;BME280;14362;51.902;7.626;2022-10-29T15:21:40;101145.91;;;21.93;87.87
26775;BME280;14362;51.902;7.626;2022-10-29T15:25:43;101139.66;;;21.77;88.92
26775;BME280;14362;51.902;7.626;2022-10-29T15:29:47;101124.56;;;21.67;89.82
26775;BME280;14362;51.902;7.626;2022-10-29T15:33:50;101131.22;;;21.52;91.01
26775;BME280;14362;51.902;7.626;2022-10-29T15:37:53;101125.41;;;21.38;92.01
26775;BME280;14362;51.902;7.626;2022-10-29T15:41:57;101128.84;;;21.21;93.94
26775;BME280;14362;51.902;7.626;2022-10-29T15:46:01;101115.22;;;21.00;95.83
26775;BME280;14362;51.902;7.626;2022-10-29T15:50:05;101111.28;;;20.79;97.41
26775;BME280;14362;51.902;7.626;2022-10-29T15:54:10;101100.88;;;20.61;98.64
26775;BME280;14362;51.902;7.626;2022-10-29T15:58:15;101104.34;;;20.51;100.00
26775;BME280;14362;51.902;7.626;2022-10-29T16:02:18;101099.72;;;20.39;100.00
26775;BME280;14362;51.902;7.626;2022-10-29T16:06:20;101097.59;;;20.33;100.00
26775;BME280;14362;51.902;7.626;2022-10-29T16:10:21;101102.72;;;20.24;100.00
26775;BME280;14362;51.902;7.626;2022-10-29T16:14:22;101105.06;;;20.18;100.00
26775;BME280;14362;51.902;7.626;2022-10-29T16:18:25;101094.81;;;20.10;100.00
26775;BME280;14362;51.902;7.626;2022-10-29T16:22:28;101099.16;;;20.04;100.00
26775;BME280;14362;51.902;7.626;2022-10-29T16:26:30;101117.31;;;20.03;100.00
26775;BME280;14362;51.902;7.626;2022-10-29T16:30:32;101110.81;;;19.99;100.00
26775;BME280;14362;51.902;7.626;2022-10-29T16:34:35;101109.91;;;19.95;100.00
26775;BME280;14362;51.902;7.626;2022-10-29T16:38:36;101121.47;;;19.87;100.00
26775;BME280;14362;51.902;7.626;2022-10-29T16:42:38;101114.88;;;19.79;100.00
26775;BME280;14362;51.902;7.626;2022-10-29T16:46:39;101109.47;;;19.71;100.00
26775;BME280;14362;51.902;7.626;2022-10-29T16:50:42;101102.78;;;19.60;100.00
26775;BME280;14362;51.902;7.626;2022-10-29T16:54:44;101102.22;;;19.51;100.00
26775;BME280;14362;51.902;7.626;2022-10-29T16:58:45;101095.53;;;19.40;100.00
26775;BME280;14362;51.902;7.626;2022-10-29T17:02:46;101102.69;;;19.34;100.00
26775;BME280;14362;51.902;7.626;2022-10-29T17:06:49;101103.34;;;19.28;100.00
26775;BME280;14362;51.902;7.626;2022-10-29T17:10:56;101098.03;;;19.23;100.00
26775;BME280;14362;51.902;7.626;2022-10-29T17:14:57;101103.91;;;19.14;100.00
26775;BME280;14362;51.902;7.626;2022-10-29T17:18:59;101100.44;;;19.05;100.00
26775;BME280;14362;51.902;7.626;2022-10-29T17:23:01;101102.81;;;19.03;100.00
26775;BME280;14362;51.902;7.626;2022-10-29T17:27:03;101099.94;;;19.00;100.00
26775;BME280;14362;51.902;7.626;2022-10-29T17:31:05;101089.44;;;19.00;100.00
26775;BME280;14362;51.902;7.626;2022-10-29T17:35:07;101091.06;;;19.01;100.00
26775;BME280;14362;51.902;7.626;2022-10-29T17:39:10;101079.69;;;18.98;100.00
26775;BME280;14362;51.902;7.626;2022-10-29T17:43:11;101079.69;;;18.98;100.00
26775;BME280;14362;51.902;7.626;2022-10-29T17:47:14;101086.16;;;18.98;100.00
26775;BME280;14362;51.902;7.626;2022-10-29T17:51:15;101079.84;;;19.05;100.00
26775;BME280;14362;51.902;7.626;2022-10-29T17:55:18;101077.78;;;19.02;100.00
26775;BME280;14362;51.902;7.626;2022-10-29T17:59:19;101097.56;;;19.02;100.00
26775;BME280;14362;51.902;7.626;2022-10-29T18:03:23;101096.81;;;19.05;100.00
26775;BME280;14362;51.902;7.626;2022-10-29T18:07:24;101098.00;;;19.04;100.00
26775;BME280;14362;51.902;7.626;2022-10-29T18:11:27;101085.41;;;19.01;100.00
26775;BME280;14362;51.902;7.626;2022-10-29T18:15:29;101084.50;;;18.97;100.00
26775;BME280;14362;51.902;7.626;2022-10-29T18:19:30;101094.13;;;18.93;100.00
26775;BME280;14362;51.902;7.626;2022-10-29T18:23:32;101096.88;;;18.89;100.00
26775;BME280;14362;51.902;7.626;2022-10-29T18:27:34;101093.16;;;18.85;100.00
26775;BME280;14362;51.902;7.626;2022-10-29T18:31:36;101084.16;;;18.80;100.00
26775;BME280;14362;51.902;7.626;2022-10-29T18:35:41;101074.44;;;18.77;100.00
26775;BME280;14362;51.902;7.626;2022-10-29T18:39:42;101075.16;;;18.74;100.00
26775;BME280;14362;51.902;7.626;2022-10-29T18:43:45;101072.69;;;18.73;100.00
26775;BME280;14362;51.902;7.626;2022-10-29T18:47:46;101067.78;;;18.70;100.00
26775;BME280;14362;51.902;7.626;2022-10-29T18:51:48;101055.25;;;18.67;100.00
26775;BME280;14362;51.902;7.626;2022-10-29T18:55:50;101060.38;;;18.62;100.00
26775;BME280;14362;51.902;7.626;2022-10-29T18:59:53;101058.28;;;18.59;100.00
26775;BME280;14362;51.902;7.626;2022-10-29T19:03:56;101067.88;;;18.54;100.00
26775;BME280;14362;51.902;7.626;2022-10-29T19:07:58;101072.31;;;18.55;100.00
26775;BME280;14362;51.902;7.626;2022-10-29T19:12:00;101068.66;;;18.55;100.00
26775;BME280;14362;51.902;7.626;2022-10-29T19:16:04;101073.97;;;18.56;100.00
26775;BME280;14362;51.902;7.626;2022-10-29T19:20:06;101067.03;;;18.54;100.00
26775;BME280;14362;51.902;7.626;2022-10-29T19:24:11;101070.97;;;18.50;100.00
26775;BME280;14362;51.902;7.626;2022-10-29T19:28:13;101069.72;;;18.47;100.00
26775;BME280;14362;51.902;7.626;2022-10-29T19:32:16;101078.47;;;18.42;100.00
26775;BME280;14362;51.902;7.626;2022-10-29T19:36:17;101066.25;;;18.38;100.00
26775;BME280;14362;51.902;7.626;2022-10-29T19:40:19;101053.19;;;18.30;100.00
26775;BME280;14362;51.902;7.626;2022-10-29T19:44:20;101063.56;;;18.26;100.00
26775;BME280;14362;51.902;7.626;2022-10-29T19:48:23;101054.16;;;18.22;100.00
26775;BME280;14362;51.902;7.626;2022-10-29T19:52:25;101052.91;;;18.20;100.00
26775;BME280;14362;51.902;7.626;2022-10-29T19:56:26;101048.34;;;18.15;100.00
26775;BME280;14362;51.902;7.626;2022-10-29T20:00:27;101057.53;;;18.12;100.00
26775;BME280;14362;51.902;7.626;2022-10-29T20:04:30;101045.38;;;18.08;100.00
26775;BME280;14362;51.902;7.626;2022-10-29T20:08:32;101062.13;;;18.01;100.00
26775;BME280;14362;51.902;7.626;2022-10-29T20:12:33;101066.06;;;17.97;100.00
26775;BME280;14362;51.902;7.626;2022-10-29T20:16:34;101060.31;;;17.93;100.00
26775;BME280;14362;51.902;7.626;2022-10-29T20:20:37;101056.59;;;17.89;100.00
26775;BME280;14362;51.902;7.626;2022-10-29T20:24:38;101063.78;;;17.87;100.00
26775;BME280;14362;51.902;7.626;2022-10-29T20:28:40;101059.69;;;17.84;100.00
26775;BME280;14362;51.902;7.626;2022-10-29T20:32:41;101058.78;;;17.80;100.00
26775;BME280;14362;51.902;7.626;2022-10-29T20:36:44;101066.06;;;17.81;100.00
26775;BME280;14362;51.902;7.626;2022-10-29T20:40:49;101068.06;;;17.81;100.00
26775;BME280;14362;51.902;7.626;2022-10-29T20:44:50;101069.13;;;17.76;100.00
26775;BME280;14362;51.902;7.626;2022-10-29T20:48:52;101068.16;;;17.69;100.00
26775;BME280;14362;51.902;7.626;2022-10-29T20:52:54;101073.25;;;17.63;100.00
26775;BME280;14362;51.902;7.626;2022-10-29T20:56:56;101070.69;;;17.58;100.00
26775;BME280;14362;51.902;7.626;2022-10-29T21:01:03;101063.41;;;17.57;100.00
26775;BME280;14362;51.902;7.626;2022-10-29T21:05:05;101064.50;;;17.53;100.00